sensor_id;sensor_type;location;lat;lon;timestamp;P1;durP1;ratioP1;P2;durP2;ratioP2
26562;SDS011;14217;50.986;5.826;2022-11-04T00:02:05;0.55;;;0.40;;
26562;SDS011;14217;50.986;5.826;2022-11-04T00:07:07;2.47;;;0.73;;
26562;SDS011;14217;50.986;5.826;2022-11-04T00:12:29;1.88;;;0.40;;
26562;SDS011;14217;50.986;5.826;2022-11-04T00:17:31;1.00;;;0.40;;
26562;SDS011;14217;50.986;5.826;2022-11-04T00:22:33;2.30;;;0.40;;
26562;SDS011;14217;50.986;5.826;2022-11-04T00:28:01;1.08;;;0.35;;
26562;SDS011;14217;50.986;5.826;2022-11-04T00:33:23;0.35;;;0.32;;
26562;SDS011;14217;50.986;5.826;2022-11-04T00:38:28;3.00;;;0.80;;
26562;SDS011;14217;50.986;5.826;2022-11-04T00:43:29;2.47;;;0.25;;
26562;SDS011;14217;50.986;5.826;2022-11-04T00:48:31;0.20;;;0.20;;
26562;SDS011;14217;50.986;5.826;2022-11-04T00:53:33;0.52;;;0.30;;
26562;SDS011;14217;50.986;5.826;2022-11-04T00:58:35;2.95;;;0.38;;
26562;SDS011;14217;50.986;5.826;2022-11-04T01:03:37;0.38;;;0.30;;
26562;SDS011;14217;50.986;5.826;2022-11-04T01:08:39;2.72;;;0.55;;
26562;SDS011;14217;50.986;5.826;2022-11-04T01:13:41;1.38;;;0.30;;
26562;SDS011;14217;50.986;5.826;2022-11-04T01:18:43;0.80;;;0.40;;
26562;SDS011;14217;50.986;5.826;2022-11-04T01:23:45;1.45;;;0.32;;
26562;SDS011;14217;50.986;5.826;2022-11-04T01:28:47;0.75;;;0.30;;
26562;SDS011;14217;50.986;5.826;2022-11-04T01:33:50;1.58;;;0.57;;
26562;SDS011;14217;50.986;5.826;2022-11-04T01:38:54;1.38;;;0.30;;
26562;SDS011;14217;50.986;5.826;2022-11-04T01:44:01;0.63;;;0.30;;
26562;SDS011;14217;50.986;5.826;2022-11-04T01:49:24;4.07;;;0.40;;
26562;SDS011;14217;50.986;5.826;2022-11-04T01:54:33;1.77;;;0.45;;
26562;SDS011;14217;50.986;5.826;2022-11-04T01:59:37;0.40;;;0.40;;
26562;SDS011;14217;50.986;5.826;2022-11-04T02:04:41;0.75;;;0.50;;
26562;SDS011;14217;50.986;5.826;2022-11-04T02:09:43;0.50;;;0.50;;
26562;SDS011;14217;50.986;5.826;2022-11-04T02:14:47;1.00;;;0.28;;
26562;SDS011;14217;50.986;5.826;2022-11-04T02:25:39;10.55;;;0.73;;
26562;SDS011;14217;50.986;5.826;2022-11-04T02:41:53;1.65;;;0.43;;
26562;SDS011;14217;50.986;5.826;2022-11-04T02:47:12;1.80;;;0.30;;
26562;SDS011;14217;50.986;5.826;2022-11-04T02:52:22;2.45;;;0.30;;
26562;SDS011;14217;50.986;5.826;2022-11-04T02:57:52;1.13;;;0.43;;
26562;SDS011;14217;50.986;5.826;2022-11-04T03:03:00;1.33;;;0.85;;
26562;SDS011;14217;50.986;5.826;2022-11-04T03:08:09;0.55;;;0.30;;
26562;SDS011;14217;50.986;5.826;2022-11-04T03:13:18;0.73;;;0.30;;
26562;SDS011;14217;50.986;5.826;2022-11-04T03:18:42;0.55;;;0.40;;
26562;SDS011;14217;50.986;5.826;2022-11-04T03:23:57;1.65;;;0.50;;
26562;SDS011;14217;50.986;5.826;2022-11-04T03:34:36;2.38;;;0.30;;
26562;SDS011;14217;50.986;5.826;2022-11-04T03:39:38;0.57;;;0.30;;
26562;SDS011;14217;50.986;5.826;2022-11-04T03:44:40;0.80;;;0.40;;
26562;SDS011;14217;50.986;5.826;2022-11-04T03:49:44;1.50;;;0.38;;
26562;SDS011;14217;50.986;5.826;2022-11-04T03:54:48;0.73;;;0.20;;
26562;SDS011;14217;50.986;5.826;2022-11-04T04:05:15;1.27;;;0.30;;
26562;SDS011;14217;50.986;5.826;2022-11-04T04:16:02;1.15;;;0.40;;
26562;SDS011;14217;50.986;5.826;2022-11-04T04:21:10;0.60;;;0.20;;
26562;SDS011;14217;50.986;5.826;2022-11-04T04:26:16;9.93;;;0.57;;
26562;SDS011;14217;50.986;5.826;2022-11-04T04:31:40;1.60;;;0.60;;
26562;SDS011;14217;50.986;5.826;2022-11-04T04:36:52;1.45;;;0.68;;
26562;SDS011;14217;50.986;5.826;2022-11-04T04:41:54;1.10;;;0.60;;
26562;SDS011;14217;50.986;5.826;2022-11-04T04:47:16;1.23;;;0.70;;
26562;SDS011;14217;50.986;5.826;2022-11-04T04:52:22;0.38;;;0.35;;
26562;SDS011;14217;50.986;5.826;2022-11-04T04:57:26;4.32;;;0.65;;
26562;SDS011;14217;50.986;5.826;2022-11-04T05:02:27;0.35;;;0.30;;
26562;SDS011;14217;50.986;5.826;2022-11-04T05:07:29;0.80;;;0.40;;
26562;SDS011;14217;50.986;5.826;2022-11-04T05:12:33;4.05;;;0.43;;
26562;SDS011;14217;50.986;5.826;2022-11-04T05:17:54;0.63;;;0.20;;
26562;SDS011;14217;50.986;5.826;2022-11-04T05:22:57;0.93;;;0.43;;
26562;SDS011;14217;50.986;5.826;2022-11-04T05:28:00;1.90;;;0.35;;
26562;SDS011;14217;50.986;5.826;2022-11-04T05:33:02;1.42;;;0.60;;
26562;SDS011;14217;50.986;5.826;2022-11-04T05:38:05;1.75;;;0.60;;
26562;SDS011;14217;50.986;5.826;2022-11-04T05:43:07;1.55;;;0.40;;
26562;SDS011;14217;50.986;5.826;2022-11-04T05:48:10;3.75;;;0.57;;
26562;SDS011;14217;50.986;5.826;2022-11-04T05:53:12;0.20;;;0.15;;
26562;SDS011;14217;50.986;5.826;2022-11-04T05:58:13;1.73;;;0.40;;
26562;SDS011;14217;50.986;5.826;2022-11-04T06:03:15;1.33;;;0.40;;
26562;SDS011;14217;50.986;5.826;2022-11-04T06:08:17;0.73;;;0.38;;
26562;SDS011;14217;50.986;5.826;2022-11-04T06:13:19;1.77;;;0.70;;
26562;SDS011;14217;50.986;5.826;2022-11-04T06:18:21;4.22;;;0.70;;
26562;SDS011;14217;50.986;5.826;2022-11-04T06:23:23;1.10;;;0.50;;
26562;SDS011;14217;50.986;5.826;2022-11-04T06:28:25;1.98;;;0.75;;
26562;SDS011;14217;50.986;5.826;2022-11-04T06:33:27;5.53;;;0.52;;
26562;SDS011;14217;50.986;5.826;2022-11-04T06:38:36;2.95;;;0.43;;
26562;SDS011;14217;50.986;5.826;2022-11-04T06:43:38;1.80;;;0.40;;
26562;SDS011;14217;50.986;5.826;2022-11-04T06:48:40;2.05;;;0.95;;
26562;SDS011;14217;50.986;5.826;2022-11-04T06:53:43;2.28;;;0.38;;
26562;SDS011;14217;50.986;5.826;2022-11-04T06:58:48;4.05;;;0.82;;
26562;SDS011;14217;50.986;5.826;2022-11-04T07:03:50;1.17;;;0.40;;
26562;SDS011;14217;50.986;5.826;2022-11-04T07:08:54;2.10;;;0.43;;
26562;SDS011;14217;50.986;5.826;2022-11-04T07:13:58;1.73;;;0.57;;
26562;SDS011;14217;50.986;5.826;2022-11-04T07:19:00;6.57;;;0.85;;
26562;SDS011;14217;50.986;5.826;2022-11-04T07:24:02;2.30;;;0.65;;
26562;SDS011;14217;50.986;5.826;2022-11-04T07:29:04;5.30;;;0.75;;
26562;SDS011;14217;50.986;5.826;2022-11-04T07:34:07;3.45;;;0.82;;
26562;SDS011;14217;50.986;5.826;2022-11-04T07:39:08;10.88;;;1.23;;
26562;SDS011;14217;50.986;5.826;2022-11-04T07:44:11;4.38;;;0.95;;
26562;SDS011;14217;50.986;5.826;2022-11-04T07:49:13;4.97;;;1.67;;
26562;SDS011;14217;50.986;5.826;2022-11-04T07:54:15;4.95;;;1.00;;
26562;SDS011;14217;50.986;5.826;2022-11-04T07:59:17;4.25;;;1.00;;
26562;SDS011;14217;50.986;5.826;2022-11-04T08:04:19;3.47;;;0.90;;
26562;SDS011;14217;50.986;5.826;2022-11-04T08:09:21;2.42;;;0.80;;
26562;SDS011;14217;50.986;5.826;2022-11-04T08:14:23;2.10;;;0.90;;
26562;SDS011;14217;50.986;5.826;2022-11-04T08:19:25;3.40;;;0.98;;
26562;SDS011;14217;50.986;5.826;2022-11-04T08:24:27;3.13;;;1.30;;
26562;SDS011;14217;50.986;5.826;2022-11-04T08:29:29;3.28;;;0.90;;
26562;SDS011;14217;50.986;5.826;2022-11-04T08:34:31;4.18;;;1.73;;
26562;SDS011;14217;50.986;5.826;2022-11-04T08:39:33;10.73;;;2.00;;
26562;SDS011;14217;50.986;5.826;2022-11-04T08:44:35;6.90;;;1.02;;
26562;SDS011;14217;50.986;5.826;2022-11-04T08:49:39;1.27;;;0.88;;
26562;SDS011;14217;50.986;5.826;2022-11-04T08:54:42;6.00;;;1.42;;
26562;SDS011;14217;50.986;5.826;2022-11-04T08:59:45;2.38;;;1.33;;
26562;SDS011;14217;50.986;5.826;2022-11-04T09:04:47;3.60;;;1.08;;
26562;SDS011;14217;50.986;5.826;2022-11-04T09:09:49;3.50;;;1.00;;
26562;SDS011;14217;50.986;5.826;2022-11-04T09:14:50;1.52;;;0.82;;
26562;SDS011;14217;50.986;5.826;2022-11-04T09:19:53;4.72;;;0.90;;
26562;SDS011;14217;50.986;5.826;2022-11-04T09:24:55;1.73;;;0.80;;
26562;SDS011;14217;50.986;5.826;2022-11-04T09:29:56;10.13;;;1.25;;
26562;SDS011;14217;50.986;5.826;2022-11-04T09:34:58;3.65;;;1.10;;
26562;SDS011;14217;50.986;5.826;2022-11-04T09:40:00;2.72;;;0.95;;
26562;SDS011;14217;50.986;5.826;2022-11-04T09:45:03;2.88;;;0.85;;
26562;SDS011;14217;50.986;5.826;2022-11-04T09:50:24;3.40;;;1.17;;
26562;SDS011;14217;50.986;5.826;2022-11-04T10:00:56;2.50;;;0.75;;
26562;SDS011;14217;50.986;5.826;2022-11-04T10:06:26;1.33;;;0.68;;
26562;SDS011;14217;50.986;5.826;2022-11-04T10:27:33;3.97;;;0.90;;
26562;SDS011;14217;50.986;5.826;2022-11-04T10:32:51;1.75;;;0.90;;
26562;SDS011;14217;50.986;5.826;2022-11-04T10:37:53;2.92;;;1.27;;
26562;SDS011;14217;50.986;5.826;2022-11-04T10:42:57;1.75;;;0.70;;
26562;SDS011;14217;50.986;5.826;2022-11-04T10:48:02;5.22;;;0.75;;
26562;SDS011;14217;50.986;5.826;2022-11-04T10:58:45;3.53;;;1.00;;
26562;SDS011;14217;50.986;5.826;2022-11-04T11:03:48;4.95;;;0.60;;
26562;SDS011;14217;50.986;5.826;2022-11-04T11:08:50;2.00;;;0.82;;
26562;SDS011;14217;50.986;5.826;2022-11-04T11:13:54;7.93;;;3.03;;
26562;SDS011;14217;50.986;5.826;2022-11-04T11:19:13;8.10;;;2.15;;
26562;SDS011;14217;50.986;5.826;2022-11-04T11:24:19;5.75;;;1.45;;
26562;SDS011;14217;50.986;5.826;2022-11-04T11:29:32;7.65;;;0.90;;
26562;SDS011;14217;50.986;5.826;2022-11-04T11:34:42;6.05;;;1.15;;
26562;SDS011;14217;50.986;5.826;2022-11-04T11:39:47;5.68;;;1.33;;
26562;SDS011;14217;50.986;5.826;2022-11-04T11:44:52;3.33;;;0.90;;
26562;SDS011;14217;50.986;5.826;2022-11-04T11:55:35;4.65;;;1.00;;
26562;SDS011;14217;50.986;5.826;2022-11-04T12:00:50;0.80;;;0.63;;
26562;SDS011;14217;50.986;5.826;2022-11-04T12:11:26;2.05;;;0.90;;
26562;SDS011;14217;50.986;5.826;2022-11-04T12:21:54;2.53;;;0.65;;
26562;SDS011;14217;50.986;5.826;2022-11-04T12:27:06;1.55;;;0.60;;
26562;SDS011;14217;50.986;5.826;2022-11-04T12:32:22;1.95;;;0.77;;
26562;SDS011;14217;50.986;5.826;2022-11-04T12:43:23;2.90;;;0.70;;
26562;SDS011;14217;50.986;5.826;2022-11-04T12:54:05;1.85;;;0.88;;
26562;SDS011;14217;50.986;5.826;2022-11-04T12:59:28;2.65;;;0.70;;
26562;SDS011;14217;50.986;5.826;2022-11-04T13:04:49;3.00;;;1.02;;
26562;SDS011;14217;50.986;5.826;2022-11-04T13:10:04;6.25;;;0.70;;
26562;SDS011;14217;50.986;5.826;2022-11-04T13:15:24;1.38;;;0.65;;
26562;SDS011;14217;50.986;5.826;2022-11-04T13:20:38;3.17;;;0.75;;
26562;SDS011;14217;50.986;5.826;2022-11-04T13:25:44;4.53;;;1.05;;
26562;SDS011;14217;50.986;5.826;2022-11-04T13:30:53;2.65;;;1.05;;
26562;SDS011;14217;50.986;5.826;2022-11-04T13:36:27;2.22;;;0.77;;
26562;SDS011;14217;50.986;5.826;2022-11-04T13:52:39;6.38;;;1.15;;
26562;SDS011;14217;50.986;5.826;2022-11-04T13:57:56;2.75;;;0.80;;
26562;SDS011;14217;50.986;5.826;2022-11-04T14:08:27;2.33;;;0.70;;
26562;SDS011;14217;50.986;5.826;2022-11-04T14:18:35;5.20;;;0.77;;
26562;SDS011;14217;50.986;5.826;2022-11-04T14:23:37;4.57;;;1.50;;
26562;SDS011;14217;50.986;5.826;2022-11-04T14:28:42;3.70;;;1.05;;
26562;SDS011;14217;50.986;5.826;2022-11-04T14:33:52;5.55;;;1.92;;
26562;SDS011;14217;50.986;5.826;2022-11-04T15:05:24;3.10;;;0.88;;
26562;SDS011;14217;50.986;5.826;2022-11-04T15:10:28;1.65;;;1.00;;
26562;SDS011;14217;50.986;5.826;2022-11-04T15:20:39;2.67;;;0.93;;
26562;SDS011;14217;50.986;5.826;2022-11-04T15:25:47;1.40;;;1.00;;
26562;SDS011;14217;50.986;5.826;2022-11-04T15:31:06;1.95;;;0.90;;
26562;SDS011;14217;50.986;5.826;2022-11-04T15:36:25;2.55;;;1.17;;
26562;SDS011;14217;50.986;5.826;2022-11-04T15:41:32;3.85;;;1.75;;
26562;SDS011;14217;50.986;5.826;2022-11-04T15:46:55;2.50;;;1.23;;
26562;SDS011;14217;50.986;5.826;2022-11-04T15:51:59;3.72;;;1.63;;
26562;SDS011;14217;50.986;5.826;2022-11-04T16:02:22;2.33;;;1.30;;
26562;SDS011;14217;50.986;5.826;2022-11-04T16:07:50;3.42;;;1.55;;
26562;SDS011;14217;50.986;5.826;2022-11-04T16:12:58;2.17;;;1.55;;
26562;SDS011;14217;50.986;5.826;2022-11-04T16:18:22;4.50;;;2.35;;
26562;SDS011;14217;50.986;5.826;2022-11-04T16:23:30;2.35;;;1.20;;
26562;SDS011;14217;50.986;5.826;2022-11-04T16:28:36;1.30;;;1.00;;
26562;SDS011;14217;50.986;5.826;2022-11-04T16:33:39;4.82;;;1.25;;
26562;SDS011;14217;50.986;5.826;2022-11-04T16:38:41;1.88;;;1.10;;
26562;SDS011;14217;50.986;5.826;2022-11-04T16:43:43;2.50;;;1.33;;
26562;SDS011;14217;50.986;5.826;2022-11-04T16:48:45;1.25;;;1.00;;
26562;SDS011;14217;50.986;5.826;2022-11-04T16:53:47;0.80;;;0.80;;
26562;SDS011;14217;50.986;5.826;2022-11-04T16:58:51;1.10;;;0.93;;
26562;SDS011;14217;50.986;5.826;2022-11-04T17:03:53;1.58;;;1.13;;
26562;SDS011;14217;50.986;5.826;2022-11-04T17:08:55;2.67;;;1.08;;
26562;SDS011;14217;50.986;5.826;2022-11-04T17:13:57;2.17;;;0.75;;
26562;SDS011;14217;50.986;5.826;2022-11-04T17:18:59;2.28;;;0.73;;
26562;SDS011;14217;50.986;5.826;2022-11-04T17:24:01;1.92;;;0.90;;
26562;SDS011;14217;50.986;5.826;2022-11-04T17:29:03;0.70;;;0.65;;
26562;SDS011;14217;50.986;5.826;2022-11-04T17:34:04;1.13;;;0.80;;
26562;SDS011;14217;50.986;5.826;2022-11-04T17:39:06;0.82;;;0.80;;
26562;SDS011;14217;50.986;5.826;2022-11-04T17:44:08;0.93;;;0.68;;
26562;SDS011;14217;50.986;5.826;2022-11-04T17:49:11;1.02;;;0.82;;
26562;SDS011;14217;50.986;5.826;2022-11-04T17:54:14;0.90;;;0.77;;
26562;SDS011;14217;50.986;5.826;2022-11-04T17:59:17;1.15;;;0.68;;
26562;SDS011;14217;50.986;5.826;2022-11-04T18:04:19;0.75;;;0.52;;
26562;SDS011;14217;50.986;5.826;2022-11-04T18:09:23;2.78;;;0.95;;
26562;SDS011;14217;50.986;5.826;2022-11-04T18:14:25;0.93;;;0.60;;
26562;SDS011;14217;50.986;5.826;2022-11-04T18:19:27;2.63;;;0.63;;
26562;SDS011;14217;50.986;5.826;2022-11-04T18:24:29;6.68;;;0.88;;
26562;SDS011;14217;50.986;5.826;2022-11-04T18:29:32;1.38;;;0.60;;
26562;SDS011;14217;50.986;5.826;2022-11-04T18:34:33;5.30;;;0.70;;
26562;SDS011;14217;50.986;5.826;2022-11-04T18:39:35;4.10;;;1.10;;
26562;SDS011;14217;50.986;5.826;2022-11-04T18:44:38;4.60;;;1.10;;
26562;SDS011;14217;50.986;5.826;2022-11-04T18:49:40;4.05;;;0.90;;
26562;SDS011;14217;50.986;5.826;2022-11-04T18:54:42;3.95;;;1.30;;
26562;SDS011;14217;50.986;5.826;2022-11-04T18:59:45;4.82;;;0.95;;
26562;SDS011;14217;50.986;5.826;2022-11-04T19:04:47;1.17;;;0.85;;
26562;SDS011;14217;50.986;5.826;2022-11-04T19:09:50;5.22;;;1.45;;
26562;SDS011;14217;50.986;5.826;2022-11-04T19:14:52;2.85;;;1.10;;
26562;SDS011;14217;50.986;5.826;2022-11-04T19:19:53;1.45;;;1.00;;
26562;SDS011;14217;50.986;5.826;2022-11-04T19:24:56;10.48;;;1.15;;
26562;SDS011;14217;50.986;5.826;2022-11-04T19:29:58;1.65;;;0.70;;
26562;SDS011;14217;50.986;5.826;2022-11-04T19:34:59;1.63;;;1.13;;
26562;SDS011;14217;50.986;5.826;2022-11-04T19:40:01;1.42;;;0.82;;
26562;SDS011;14217;50.986;5.826;2022-11-04T19:45:05;6.47;;;0.63;;
26562;SDS011;14217;50.986;5.826;2022-11-04T19:50:08;2.92;;;1.10;;
26562;SDS011;14217;50.986;5.826;2022-11-04T19:55:10;0.98;;;0.73;;
26562;SDS011;14217;50.986;5.826;2022-11-04T20:00:12;4.05;;;0.88;;
26562;SDS011;14217;50.986;5.826;2022-11-04T20:05:15;13.57;;;1.00;;
26562;SDS011;14217;50.986;5.826;2022-11-04T20:10:17;0.65;;;0.55;;
26562;SDS011;14217;50.986;5.826;2022-11-04T20:15:19;2.75;;;0.80;;
26562;SDS011;14217;50.986;5.826;2022-11-04T20:20:21;7.88;;;0.75;;
26562;SDS011;14217;50.986;5.826;2022-11-04T20:25:23;0.80;;;0.45;;
26562;SDS011;14217;50.986;5.826;2022-11-04T20:30:24;2.88;;;0.60;;
26562;SDS011;14217;50.986;5.826;2022-11-04T20:35:26;5.28;;;0.82;;
26562;SDS011;14217;50.986;5.826;2022-11-04T20:40:28;2.90;;;0.85;;
26562;SDS011;14217;50.986;5.826;2022-11-04T20:45:30;2.65;;;0.93;;
26562;SDS011;14217;50.986;5.826;2022-11-04T20:50:32;1.55;;;0.70;;
26562;SDS011;14217;50.986;5.826;2022-11-04T20:55:37;2.65;;;0.90;;
26562;SDS011;14217;50.986;5.826;2022-11-04T21:00:39;3.70;;;0.90;;
26562;SDS011;14217;50.986;5.826;2022-11-04T21:05:42;1.80;;;0.95;;
26562;SDS011;14217;50.986;5.826;2022-11-04T21:10:47;0.52;;;0.50;;
26562;SDS011;14217;50.986;5.826;2022-11-04T21:15:59;2.17;;;1.00;;
26562;SDS011;14217;50.986;5.826;2022-11-04T21:21:02;1.75;;;0.88;;
26562;SDS011;14217;50.986;5.826;2022-11-04T21:31:10;1.95;;;0.68;;
26562;SDS011;14217;50.986;5.826;2022-11-04T21:36:12;8.10;;;0.77;;
26562;SDS011;14217;50.986;5.826;2022-11-04T21:41:15;0.60;;;0.60;;
26562;SDS011;14217;50.986;5.826;2022-11-04T21:46:21;1.30;;;0.60;;
26562;SDS011;14217;50.986;5.826;2022-11-04T21:51:25;1.92;;;0.73;;
26562;SDS011;14217;50.986;5.826;2022-11-04T21:56:29;2.80;;;0.80;;
26562;SDS011;14217;50.986;5.826;2022-11-04T22:01:33;7.10;;;0.60;;
26562;SDS011;14217;50.986;5.826;2022-11-04T22:06:35;2.50;;;0.70;;
26562;SDS011;14217;50.986;5.826;2022-11-04T22:11:37;2.60;;;0.90;;
26562;SDS011;14217;50.986;5.826;2022-11-04T22:16:40;1.38;;;0.52;;
26562;SDS011;14217;50.986;5.826;2022-11-04T22:21:42;1.90;;;0.70;;
26562;SDS011;14217;50.986;5.826;2022-11-04T22:26:45;2.75;;;0.75;;
26562;SDS011;14217;50.986;5.826;2022-11-04T22:31:48;4.85;;;0.93;;
26562;SDS011;14217;50.986;5.826;2022-11-04T22:36:49;1.42;;;0.68;;
26562;SDS011;14217;50.986;5.826;2022-11-04T22:41:51;0.80;;;0.70;;
26562;SDS011;14217;50.986;5.826;2022-11-04T22:46:53;2.80;;;0.50;;
26562;SDS011;14217;50.986;5.826;2022-11-04T22:51:55;3.67;;;1.23;;
26562;SDS011;14217;50.986;5.826;2022-11-04T22:56:57;6.43;;;0.73;;
26562;SDS011;14217;50.986;5.826;2022-11-04T23:01:59;2.33;;;0.60;;
26562;SDS011;14217;50.986;5.826;2022-11-04T23:07:01;2.63;;;0.93;;
26562;SDS011;14217;50.986;5.826;2022-11-04T23:12:03;7.43;;;1.10;;
26562;SDS011;14217;50.986;5.826;2022-11-04T23:17:24;5.50;;;1.02;;
26562;SDS011;14217;50.986;5.826;2022-11-04T23:22:44;2.33;;;0.52;;
26562;SDS011;14217;50.986;5.826;2022-11-04T23:28:05;2.63;;;0.88;;
26562;SDS011;14217;50.986;5.826;2022-11-04T23:33:36;1.70;;;0.70;;
26562;SDS011;14217;50.986;5.826;2022-11-04T23:38:56;0.88;;;0.70;;
26562;SDS011;14217;50.986;5.826;2022-11-04T23:43:58;4.57;;;0.82;;
26562;SDS011;14217;50.986;5.826;2022-11-04T23:49:00;1.63;;;0.60;;
26562;SDS011;14217;50.986;5.826;2022-11-04T23:54:07;2.15;;;1.08;;
26562;SDS011;14217;50.986;5.826;2022-11-04T23:59:28;3.80;;;0.70;;
